sensor_id;sensor_type;location;lat;lon;timestamp;temperature;humidity
70734;DHT22;58320;48.804;9.252;2023-03-01T00:02:21;-0.60;70.60
70734;DHT22;58320;48.804;9.252;2023-03-01T00:04:47;-0.60;70.80
70734;DHT22;58320;48.804;9.252;2023-03-01T00:07:12;-0.70;70.90
70734;DHT22;58320;48.804;9.252;2023-03-01T00:09:38;-0.70;71.10
70734;DHT22;58320;48.804;9.252;2023-03-01T00:12:06;-0.70;71.10
70734;DHT22;58320;48.804;9.252;2023-03-01T00:14:32;-0.70;71.00
70734;DHT22;58320;48.804;9.252;2023-03-01T00:16:57;-0.70;71.10
70734;DHT22;58320;48.804;9.252;2023-03-01T00:19:23;-0.70;71.00
70734;DHT22;58320;48.804;9.252;2023-03-01T00:21:49;-0.70;70.90
70734;DHT22;58320;48.804;9.252;2023-03-01T00:24:15;-0.70;71.00
70734;DHT22;58320;48.804;9.252;2023-03-01T00:26:41;-0.70;70.90
70734;DHT22;58320;48.804;9.252;2023-03-01T00:29:07;-0.70;70.70
70734;DHT22;58320;48.804;9.252;2023-03-01T00:31:33;-0.70;70.80
70734;DHT22;58320;48.804;9.252;2023-03-01T00:34:02;-0.70;70.90
70734;DHT22;58320;48.804;9.252;2023-03-01T00:36:35;-0.80;71.00
70734;DHT22;58320;48.804;9.252;2023-03-01T00:39:03;-0.80;71.10
70734;DHT22;58320;48.804;9.252;2023-03-01T00:41:30;-0.80;71.20
70734;DHT22;58320;48.804;9.252;2023-03-01T00:43:56;-0.90;71.20
70734;DHT22;58320;48.804;9.252;2023-03-01T00:46:24;-0.90;71.60
70734;DHT22;58320;48.804;9.252;2023-03-01T00:48:51;-0.90;71.80
70734;DHT22;58320;48.804;9.252;2023-03-01T00:51:25;-0.90;71.90
70734;DHT22;58320;48.804;9.252;2023-03-01T00:53:58;-1.00;71.90
70734;DHT22;58320;48.804;9.252;2023-03-01T00:56:25;-1.00;72.00
70734;DHT22;58320;48.804;9.252;2023-03-01T00:58:50;-1.00;72.30
70734;DHT22;58320;48.804;9.252;2023-03-01T01:01:19;-1.00;72.50
70734;DHT22;58320;48.804;9.252;2023-03-01T01:03:59;-1.00;72.70
70734;DHT22;58320;48.804;9.252;2023-03-01T01:06:30;-1.10;72.70
70734;DHT22;58320;48.804;9.252;2023-03-01T01:09:06;-1.10;73.10
70734;DHT22;58320;48.804;9.252;2023-03-01T01:11:33;-1.10;73.20
70734;DHT22;58320;48.804;9.252;2023-03-01T01:14:00;-1.10;73.30
70734;DHT22;58320;48.804;9.252;2023-03-01T01:16:27;-1.10;73.30
70734;DHT22;58320;48.804;9.252;2023-03-01T01:18:54;-1.10;73.30
70734;DHT22;58320;48.804;9.252;2023-03-01T01:21:22;-1.10;73.70
70734;DHT22;58320;48.804;9.252;2023-03-01T01:23:49;-1.10;73.70
70734;DHT22;58320;48.804;9.252;2023-03-01T01:26:21;-1.20;73.90
70734;DHT22;58320;48.804;9.252;2023-03-01T01:28:49;-1.20;73.80
70734;DHT22;58320;48.804;9.252;2023-03-01T01:31:16;-1.20;73.70
70734;DHT22;58320;48.804;9.252;2023-03-01T01:33:42;-1.20;73.70
70734;DHT22;58320;48.804;9.252;2023-03-01T01:36:08;-1.20;73.90
70734;DHT22;58320;48.804;9.252;2023-03-01T01:38:35;-1.20;73.90
70734;DHT22;58320;48.804;9.252;2023-03-01T01:41:02;-1.20;73.80
70734;DHT22;58320;48.804;9.252;2023-03-01T01:43:34;-1.20;74.10
70734;DHT22;58320;48.804;9.252;2023-03-01T01:46:30;-1.30;74.30
70734;DHT22;58320;48.804;9.252;2023-03-01T01:49:06;-1.10;74.10
70734;DHT22;58320;48.804;9.252;2023-03-01T01:51:38;-1.10;73.70
70734;DHT22;58320;48.804;9.252;2023-03-01T01:54:10;-1.00;73.10
70734;DHT22;58320;48.804;9.252;2023-03-01T01:56:41;-0.90;73.00
70734;DHT22;58320;48.804;9.252;2023-03-01T01:59:10;-0.90;72.90
70734;DHT22;58320;48.804;9.252;2023-03-01T02:01:36;-0.80;72.90
70734;DHT22;58320;48.804;9.252;2023-03-01T02:04:02;-0.70;72.50
70734;DHT22;58320;48.804;9.252;2023-03-01T02:06:42;-0.60;72.30
70734;DHT22;58320;48.804;9.252;2023-03-01T02:09:14;-0.50;71.80
70734;DHT22;58320;48.804;9.252;2023-03-01T02:11:41;-0.50;71.40
70734;DHT22;58320;48.804;9.252;2023-03-01T02:14:08;-0.40;71.10
70734;DHT22;58320;48.804;9.252;2023-03-01T02:16:34;-0.40;71.20
70734;DHT22;58320;48.804;9.252;2023-03-01T02:19:01;-0.30;71.20
70734;DHT22;58320;48.804;9.252;2023-03-01T02:21:36;-0.30;71.20
70734;DHT22;58320;48.804;9.252;2023-03-01T02:24:49;-0.20;70.90
70734;DHT22;58320;48.804;9.252;2023-03-01T02:27:26;-0.10;70.60
70734;DHT22;58320;48.804;9.252;2023-03-01T02:29:57;-0.10;70.10
70734;DHT22;58320;48.804;9.252;2023-03-01T02:32:23;-0.10;70.00
70734;DHT22;58320;48.804;9.252;2023-03-01T02:34:54;0.00;70.00
70734;DHT22;58320;48.804;9.252;2023-03-01T02:37:21;0.00;70.20
70734;DHT22;58320;48.804;9.252;2023-03-01T02:39:56;0.00;70.00
70734;DHT22;58320;48.804;9.252;2023-03-01T02:42:29;0.00;69.70
70734;DHT22;58320;48.804;9.252;2023-03-01T02:44:57;0.00;69.70
70734;DHT22;58320;48.804;9.252;2023-03-01T02:47:23;0.00;69.60
70734;DHT22;58320;48.804;9.252;2023-03-01T02:49:49;0.00;69.80
70734;DHT22;58320;48.804;9.252;2023-03-01T02:52:45;0.00;69.90
70734;DHT22;58320;48.804;9.252;2023-03-01T02:55:18;0.00;70.10
70734;DHT22;58320;48.804;9.252;2023-03-01T02:57:46;0.00;70.10
70734;DHT22;58320;48.804;9.252;2023-03-01T03:00:23;0.10;70.20
70734;DHT22;58320;48.804;9.252;2023-03-01T03:02:51;0.10;70.00
70734;DHT22;58320;48.804;9.252;2023-03-01T03:05:21;0.10;70.00
70734;DHT22;58320;48.804;9.252;2023-03-01T03:07:49;0.10;70.00
70734;DHT22;58320;48.804;9.252;2023-03-01T03:10:24;0.20;69.60
70734;DHT22;58320;48.804;9.252;2023-03-01T03:12:58;0.10;69.60
70734;DHT22;58320;48.804;9.252;2023-03-01T03:15:26;0.20;69.70
70734;DHT22;58320;48.804;9.252;2023-03-01T03:17:53;0.20;69.40
70734;DHT22;58320;48.804;9.252;2023-03-01T03:20:22;0.20;69.50
70734;DHT22;58320;48.804;9.252;2023-03-01T03:22:53;0.30;69.20
70734;DHT22;58320;48.804;9.252;2023-03-01T03:25:20;0.30;69.40
70734;DHT22;58320;48.804;9.252;2023-03-01T03:27:48;0.30;69.20
70734;DHT22;58320;48.804;9.252;2023-03-01T03:30:17;0.30;69.30
70734;DHT22;58320;48.804;9.252;2023-03-01T03:32:46;0.30;69.20
70734;DHT22;58320;48.804;9.252;2023-03-01T03:35:31;0.30;69.20
70734;DHT22;58320;48.804;9.252;2023-03-01T03:38:00;0.40;69.20
70734;DHT22;58320;48.804;9.252;2023-03-01T03:40:36;0.40;69.10
70734;DHT22;58320;48.804;9.252;2023-03-01T03:43:14;0.40;69.00
70734;DHT22;58320;48.804;9.252;2023-03-01T03:45:49;0.40;68.90
70734;DHT22;58320;48.804;9.252;2023-03-01T03:48:16;0.40;69.00
70734;DHT22;58320;48.804;9.252;2023-03-01T03:50:48;0.40;68.80
70734;DHT22;58320;48.804;9.252;2023-03-01T03:53:16;0.50;68.80
70734;DHT22;58320;48.804;9.252;2023-03-01T03:55:42;0.50;68.90
70734;DHT22;58320;48.804;9.252;2023-03-01T03:58:10;0.50;68.70
70734;DHT22;58320;48.804;9.252;2023-03-01T04:00:39;0.50;68.80
70734;DHT22;58320;48.804;9.252;2023-03-01T04:03:07;0.50;68.80
70734;DHT22;58320;48.804;9.252;2023-03-01T04:05:33;0.50;68.70
70734;DHT22;58320;48.804;9.252;2023-03-01T04:07:59;0.50;68.70
70734;DHT22;58320;48.804;9.252;2023-03-01T04:10:29;0.50;68.70
70734;DHT22;58320;48.804;9.252;2023-03-01T04:12:58;0.60;68.50
70734;DHT22;58320;48.804;9.252;2023-03-01T04:15:25;0.50;68.40
70734;DHT22;58320;48.804;9.252;2023-03-01T04:17:52;0.60;68.30
70734;DHT22;58320;48.804;9.252;2023-03-01T04:20:23;0.50;68.30
70734;DHT22;58320;48.804;9.252;2023-03-01T04:23:05;0.50;68.50
70734;DHT22;58320;48.804;9.252;2023-03-01T04:25:53;0.50;68.40
70734;DHT22;58320;48.804;9.252;2023-03-01T04:28:40;0.50;68.00
70734;DHT22;58320;48.804;9.252;2023-03-01T04:31:13;0.50;68.20
70734;DHT22;58320;48.804;9.252;2023-03-01T04:33:46;0.50;68.30
70734;DHT22;58320;48.804;9.252;2023-03-01T04:36:27;0.60;68.20
70734;DHT22;58320;48.804;9.252;2023-03-01T04:38:53;0.60;68.30
70734;DHT22;58320;48.804;9.252;2023-03-01T04:41:21;0.60;68.10
70734;DHT22;58320;48.804;9.252;2023-03-01T04:43:48;0.60;68.10
70734;DHT22;58320;48.804;9.252;2023-03-01T04:46:17;0.70;68.20
70734;DHT22;58320;48.804;9.252;2023-03-01T04:48:45;0.70;68.20
70734;DHT22;58320;48.804;9.252;2023-03-01T04:51:12;0.70;68.00
70734;DHT22;58320;48.804;9.252;2023-03-01T04:53:40;0.70;67.90
70734;DHT22;58320;48.804;9.252;2023-03-01T04:56:06;0.70;68.10
70734;DHT22;58320;48.804;9.252;2023-03-01T04:58:32;0.70;68.10
70734;DHT22;58320;48.804;9.252;2023-03-01T05:00:58;0.70;68.00
70734;DHT22;58320;48.804;9.252;2023-03-01T05:03:24;0.70;67.90
70734;DHT22;58320;48.804;9.252;2023-03-01T05:05:52;0.70;67.90
70734;DHT22;58320;48.804;9.252;2023-03-01T05:08:18;0.70;68.10
70734;DHT22;58320;48.804;9.252;2023-03-01T05:10:49;0.60;68.30
70734;DHT22;58320;48.804;9.252;2023-03-01T05:13:18;0.60;68.20
70734;DHT22;58320;48.804;9.252;2023-03-01T05:15:56;0.60;68.30
70734;DHT22;58320;48.804;9.252;2023-03-01T05:18:24;0.60;68.60
70734;DHT22;58320;48.804;9.252;2023-03-01T05:20:55;0.50;68.50
70734;DHT22;58320;48.804;9.252;2023-03-01T05:23:24;0.50;68.50
70734;DHT22;58320;48.804;9.252;2023-03-01T05:25:50;0.50;68.70
70734;DHT22;58320;48.804;9.252;2023-03-01T05:28:18;0.50;68.80
70734;DHT22;58320;48.804;9.252;2023-03-01T05:30:45;0.40;68.90
70734;DHT22;58320;48.804;9.252;2023-03-01T05:33:11;0.40;69.10
70734;DHT22;58320;48.804;9.252;2023-03-01T05:35:41;0.40;69.30
70734;DHT22;58320;48.804;9.252;2023-03-01T05:38:09;0.40;69.20
70734;DHT22;58320;48.804;9.252;2023-03-01T05:40:39;0.30;69.50
70734;DHT22;58320;48.804;9.252;2023-03-01T05:43:06;0.30;69.70
70734;DHT22;58320;48.804;9.252;2023-03-01T05:45:32;0.30;69.90
70734;DHT22;58320;48.804;9.252;2023-03-01T05:47:58;0.30;69.80
70734;DHT22;58320;48.804;9.252;2023-03-01T05:50:26;0.30;69.60
70734;DHT22;58320;48.804;9.252;2023-03-01T05:53:05;0.30;69.90
70734;DHT22;58320;48.804;9.252;2023-03-01T05:55:34;0.30;70.00
70734;DHT22;58320;48.804;9.252;2023-03-01T05:58:06;0.30;69.90
70734;DHT22;58320;48.804;9.252;2023-03-01T06:00:33;0.30;69.80
70734;DHT22;58320;48.804;9.252;2023-03-01T06:03:00;0.30;70.00
70734;DHT22;58320;48.804;9.252;2023-03-01T06:05:27;0.30;70.00
70734;DHT22;58320;48.804;9.252;2023-03-01T06:07:53;0.30;70.10
70734;DHT22;58320;48.804;9.252;2023-03-01T06:10:21;0.20;70.00
70734;DHT22;58320;48.804;9.252;2023-03-01T06:12:48;0.30;70.10
70734;DHT22;58320;48.804;9.252;2023-03-01T06:15:15;0.20;70.20
70734;DHT22;58320;48.804;9.252;2023-03-01T06:17:43;0.20;70.20
70734;DHT22;58320;48.804;9.252;2023-03-01T06:22:44;0.20;70.30
70734;DHT22;58320;48.804;9.252;2023-03-01T06:25:13;0.30;70.40
70734;DHT22;58320;48.804;9.252;2023-03-01T06:27:41;0.30;70.40
70734;DHT22;58320;48.804;9.252;2023-03-01T06:30:08;0.30;70.20
70734;DHT22;58320;48.804;9.252;2023-03-01T06:32:36;0.30;70.20
70734;DHT22;58320;48.804;9.252;2023-03-01T06:35:04;0.30;69.90
70734;DHT22;58320;48.804;9.252;2023-03-01T06:37:30;0.30;70.00
70734;DHT22;58320;48.804;9.252;2023-03-01T06:39:56;0.40;69.90
70734;DHT22;58320;48.804;9.252;2023-03-01T06:42:22;0.40;69.80
70734;DHT22;58320;48.804;9.252;2023-03-01T06:44:48;0.50;69.50
70734;DHT22;58320;48.804;9.252;2023-03-01T06:47:13;0.50;69.10
70734;DHT22;58320;48.804;9.252;2023-03-01T06:49:39;0.60;68.90
70734;DHT22;58320;48.804;9.252;2023-03-01T06:52:06;0.70;69.00
70734;DHT22;58320;48.804;9.252;2023-03-01T06:54:32;0.80;68.40
70734;DHT22;58320;48.804;9.252;2023-03-01T06:56:57;0.80;68.20
70734;DHT22;58320;48.804;9.252;2023-03-01T06:59:23;0.80;67.80
70734;DHT22;58320;48.804;9.252;2023-03-01T07:01:49;0.70;67.80
70734;DHT22;58320;48.804;9.252;2023-03-01T07:04:15;0.70;68.00
70734;DHT22;58320;48.804;9.252;2023-03-01T07:06:40;0.60;68.20
70734;DHT22;58320;48.804;9.252;2023-03-01T07:09:06;0.60;68.40
70734;DHT22;58320;48.804;9.252;2023-03-01T07:11:32;0.50;68.30
70734;DHT22;58320;48.804;9.252;2023-03-01T07:13:58;0.50;68.30
70734;DHT22;58320;48.804;9.252;2023-03-01T07:16:25;0.50;68.50
70734;DHT22;58320;48.804;9.252;2023-03-01T07:18:51;0.60;68.40
70734;DHT22;58320;48.804;9.252;2023-03-01T07:21:16;0.60;68.10
70734;DHT22;58320;48.804;9.252;2023-03-01T07:23:42;0.60;68.00
70734;DHT22;58320;48.804;9.252;2023-03-01T07:26:08;0.60;67.90
70734;DHT22;58320;48.804;9.252;2023-03-01T07:28:37;0.60;67.90
70734;DHT22;58320;48.804;9.252;2023-03-01T07:31:08;0.70;67.60
70734;DHT22;58320;48.804;9.252;2023-03-01T07:33:33;0.70;67.70
70734;DHT22;58320;48.804;9.252;2023-03-01T07:36:01;0.80;67.50
70734;DHT22;58320;48.804;9.252;2023-03-01T07:38:29;0.80;67.40
70734;DHT22;58320;48.804;9.252;2023-03-01T07:41:01;0.90;67.10
70734;DHT22;58320;48.804;9.252;2023-03-01T07:43:29;0.90;67.10
70734;DHT22;58320;48.804;9.252;2023-03-01T07:45:59;0.90;66.80
70734;DHT22;58320;48.804;9.252;2023-03-01T07:48:26;1.00;66.80
70734;DHT22;58320;48.804;9.252;2023-03-01T07:50:51;1.10;66.70
70734;DHT22;58320;48.804;9.252;2023-03-01T07:53:17;1.10;66.30
70734;DHT22;58320;48.804;9.252;2023-03-01T07:55:43;1.30;65.80
70734;DHT22;58320;48.804;9.252;2023-03-01T07:58:09;1.30;65.70
70734;DHT22;58320;48.804;9.252;2023-03-01T08:00:34;1.40;65.10
70734;DHT22;58320;48.804;9.252;2023-03-01T08:03:00;1.50;65.00
70734;DHT22;58320;48.804;9.252;2023-03-01T08:05:27;1.60;64.80
70734;DHT22;58320;48.804;9.252;2023-03-01T08:07:53;1.70;64.60
70734;DHT22;58320;48.804;9.252;2023-03-01T08:10:19;1.80;64.30
70734;DHT22;58320;48.804;9.252;2023-03-01T08:12:45;1.80;64.10
70734;DHT22;58320;48.804;9.252;2023-03-01T08:15:11;1.90;64.60
70734;DHT22;58320;48.804;9.252;2023-03-01T08:17:37;2.10;64.00
70734;DHT22;58320;48.804;9.252;2023-03-01T08:20:03;2.20;63.40
70734;DHT22;58320;48.804;9.252;2023-03-01T08:22:32;2.40;62.70
70734;DHT22;58320;48.804;9.252;2023-03-01T08:24:57;2.60;62.00
70734;DHT22;58320;48.804;9.252;2023-03-01T08:27:23;2.70;61.00
70734;DHT22;58320;48.804;9.252;2023-03-01T08:29:49;2.80;60.60
70734;DHT22;58320;48.804;9.252;2023-03-01T08:32:15;2.90;60.20
70734;DHT22;58320;48.804;9.252;2023-03-01T08:34:40;3.00;59.80
70734;DHT22;58320;48.804;9.252;2023-03-01T08:37:06;3.10;59.30
70734;DHT22;58320;48.804;9.252;2023-03-01T08:39:32;3.10;59.30
70734;DHT22;58320;48.804;9.252;2023-03-01T08:41:58;3.20;59.30
70734;DHT22;58320;48.804;9.252;2023-03-01T08:44:24;3.30;58.40
70734;DHT22;58320;48.804;9.252;2023-03-01T08:46:50;3.40;58.20
70734;DHT22;58320;48.804;9.252;2023-03-01T08:49:19;3.40;57.70
70734;DHT22;58320;48.804;9.252;2023-03-01T08:51:45;3.40;58.40
70734;DHT22;58320;48.804;9.252;2023-03-01T08:54:20;3.30;58.00
70734;DHT22;58320;48.804;9.252;2023-03-01T08:56:47;3.20;58.40
70734;DHT22;58320;48.804;9.252;2023-03-01T08:59:15;3.10;58.70
70734;DHT22;58320;48.804;9.252;2023-03-01T09:01:41;3.00;59.30
70734;DHT22;58320;48.804;9.252;2023-03-01T09:04:11;3.20;58.80
70734;DHT22;58320;48.804;9.252;2023-03-01T09:06:37;3.40;58.10
70734;DHT22;58320;48.804;9.252;2023-03-01T09:09:05;3.60;57.20
70734;DHT22;58320;48.804;9.252;2023-03-01T09:11:31;3.70;57.20
70734;DHT22;58320;48.804;9.252;2023-03-01T09:13:57;4.00;57.30
70734;DHT22;58320;48.804;9.252;2023-03-01T09:16:23;4.20;56.30
70734;DHT22;58320;48.804;9.252;2023-03-01T09:18:50;4.40;55.80
70734;DHT22;58320;48.804;9.252;2023-03-01T09:21:18;4.40;55.00
70734;DHT22;58320;48.804;9.252;2023-03-01T09:23:46;4.50;55.00
70734;DHT22;58320;48.804;9.252;2023-03-01T09:26:18;4.40;55.10
70734;DHT22;58320;48.804;9.252;2023-03-01T09:28:48;4.50;55.40
70734;DHT22;58320;48.804;9.252;2023-03-01T09:31:16;4.70;54.70
70734;DHT22;58320;48.804;9.252;2023-03-01T09:33:49;4.80;55.30
70734;DHT22;58320;48.804;9.252;2023-03-01T09:36:19;4.90;53.50
70734;DHT22;58320;48.804;9.252;2023-03-01T09:38:46;5.00;53.70
70734;DHT22;58320;48.804;9.252;2023-03-01T09:44:47;5.30;53.40
70734;DHT22;58320;48.804;9.252;2023-03-01T09:47:25;5.20;52.50
70734;DHT22;58320;48.804;9.252;2023-03-01T09:50:04;5.10;53.40
70734;DHT22;58320;48.804;9.252;2023-03-01T09:55:11;5.50;51.10
70734;DHT22;58320;48.804;9.252;2023-03-01T09:57:53;5.80;50.90
70734;DHT22;58320;48.804;9.252;2023-03-01T10:00:33;5.90;49.80
70734;DHT22;58320;48.804;9.252;2023-03-01T10:03:12;6.10;49.70
70734;DHT22;58320;48.804;9.252;2023-03-01T10:06:19;6.10;49.30
70734;DHT22;58320;48.804;9.252;2023-03-01T10:09:00;6.20;49.10
70734;DHT22;58320;48.804;9.252;2023-03-01T10:11:37;6.40;49.20
70734;DHT22;58320;48.804;9.252;2023-03-01T10:14:33;6.60;48.70
70734;DHT22;58320;48.804;9.252;2023-03-01T10:19:50;6.50;47.90
70734;DHT22;58320;48.804;9.252;2023-03-01T10:22:16;6.60;48.50
70734;DHT22;58320;48.804;9.252;2023-03-01T10:24:47;6.70;48.60
70734;DHT22;58320;48.804;9.252;2023-03-01T10:33:17;7.10;47.60
70734;DHT22;58320;48.804;9.252;2023-03-01T10:35:47;7.20;46.80
70734;DHT22;58320;48.804;9.252;2023-03-01T10:38:14;7.30;46.40
70734;DHT22;58320;48.804;9.252;2023-03-01T10:41:05;7.40;46.60
70734;DHT22;58320;48.804;9.252;2023-03-01T10:43:47;7.50;46.60
70734;DHT22;58320;48.804;9.252;2023-03-01T10:46:37;7.50;46.60
70734;DHT22;58320;48.804;9.252;2023-03-01T10:51:52;7.80;45.80
70734;DHT22;58320;48.804;9.252;2023-03-01T10:54:22;7.80;45.60
70734;DHT22;58320;48.804;9.252;2023-03-01T10:57:04;7.80;46.20
70734;DHT22;58320;48.804;9.252;2023-03-01T10:59:36;8.00;45.60
70734;DHT22;58320;48.804;9.252;2023-03-01T11:04:34;8.20;45.10
70734;DHT22;58320;48.804;9.252;2023-03-01T11:07:02;8.40;45.20
70734;DHT22;58320;48.804;9.252;2023-03-01T11:09:32;8.50;44.10
70734;DHT22;58320;48.804;9.252;2023-03-01T11:12:04;8.70;44.10
70734;DHT22;58320;48.804;9.252;2023-03-01T11:14:36;9.30;42.40
70734;DHT22;58320;48.804;9.252;2023-03-01T11:17:21;10.00;41.90
70734;DHT22;58320;48.804;9.252;2023-03-01T11:20:07;11.00;40.10
70734;DHT22;58320;48.804;9.252;2023-03-01T11:22:49;11.60;39.00
70734;DHT22;58320;48.804;9.252;2023-03-01T11:25:17;11.70;39.00
70734;DHT22;58320;48.804;9.252;2023-03-01T11:27:49;12.10;37.90
70734;DHT22;58320;48.804;9.252;2023-03-01T11:30:28;12.60;37.30
70734;DHT22;58320;48.804;9.252;2023-03-01T11:33:03;13.30;36.00
70734;DHT22;58320;48.804;9.252;2023-03-01T11:35:49;13.60;35.70
70734;DHT22;58320;48.804;9.252;2023-03-01T11:41:06;14.30;34.80
70734;DHT22;58320;48.804;9.252;2023-03-01T12:00:18;16.00;32.10
70734;DHT22;58320;48.804;9.252;2023-03-01T12:03:33;16.30;31.40
70734;DHT22;58320;48.804;9.252;2023-03-01T12:09:20;16.40;31.50
70734;DHT22;58320;48.804;9.252;2023-03-01T12:12:27;16.40;31.80
70734;DHT22;58320;48.804;9.252;2023-03-01T12:27:51;16.10;32.20
70734;DHT22;58320;48.804;9.252;2023-03-01T12:42:35;16.90;31.10
70734;DHT22;58320;48.804;9.252;2023-03-01T12:50:55;16.50;30.90
70734;DHT22;58320;48.804;9.252;2023-03-01T12:53:31;16.00;31.20
70734;DHT22;58320;48.804;9.252;2023-03-01T12:56:02;15.70;32.10
70734;DHT22;58320;48.804;9.252;2023-03-01T13:07:39;16.40;32.10
70734;DHT22;58320;48.804;9.252;2023-03-01T13:10:34;16.30;31.50
70734;DHT22;58320;48.804;9.252;2023-03-01T13:13:25;16.00;31.80
70734;DHT22;58320;48.804;9.252;2023-03-01T13:15:52;15.90;32.10
70734;DHT22;58320;48.804;9.252;2023-03-01T13:20:49;16.70;31.60
70734;DHT22;58320;48.804;9.252;2023-03-01T13:31:55;16.70;31.70
70734;DHT22;58320;48.804;9.252;2023-03-01T13:34:00;16.60;31.70
70734;DHT22;58320;48.804;9.252;2023-03-01T13:41:59;13.40;35.40
70734;DHT22;58320;48.804;9.252;2023-03-01T13:44:37;13.10;36.70
70734;DHT22;58320;48.804;9.252;2023-03-01T13:47:14;13.00;36.90
70734;DHT22;58320;48.804;9.252;2023-03-01T13:52:41;12.30;37.80
70734;DHT22;58320;48.804;9.252;2023-03-01T13:55:20;11.80;38.10
70734;DHT22;58320;48.804;9.252;2023-03-01T13:57:53;11.60;38.80
70734;DHT22;58320;48.804;9.252;2023-03-01T14:00:25;11.80;39.60
70734;DHT22;58320;48.804;9.252;2023-03-01T14:03:08;12.10;39.00
70734;DHT22;58320;48.804;9.252;2023-03-01T14:05:36;12.10;38.10
70734;DHT22;58320;48.804;9.252;2023-03-01T14:08:04;12.20;38.30
70734;DHT22;58320;48.804;9.252;2023-03-01T14:16:12;12.70;37.40
70734;DHT22;58320;48.804;9.252;2023-03-01T14:21:47;12.50;37.70
70734;DHT22;58320;48.804;9.252;2023-03-01T14:24:23;12.50;37.80
70734;DHT22;58320;48.804;9.252;2023-03-01T14:26:52;12.50;37.80
70734;DHT22;58320;48.804;9.252;2023-03-01T14:29:35;12.50;38.10
70734;DHT22;58320;48.804;9.252;2023-03-01T14:32:20;12.80;38.20
70734;DHT22;58320;48.804;9.252;2023-03-01T14:34:49;13.10;37.80
70734;DHT22;58320;48.804;9.252;2023-03-01T14:40:01;13.60;36.40
70734;DHT22;58320;48.804;9.252;2023-03-01T14:42:34;13.70;36.80
70734;DHT22;58320;48.804;9.252;2023-03-01T14:45:01;13.50;36.20
70734;DHT22;58320;48.804;9.252;2023-03-01T14:47:30;13.40;36.10
70734;DHT22;58320;48.804;9.252;2023-03-01T14:50:42;13.40;36.30
70734;DHT22;58320;48.804;9.252;2023-03-01T14:53:03;13.40;36.80
70734;DHT22;58320;48.804;9.252;2023-03-01T14:55:38;13.70;36.40
70734;DHT22;58320;48.804;9.252;2023-03-01T14:58:15;13.80;36.10
70734;DHT22;58320;48.804;9.252;2023-03-01T15:00:59;13.90;36.00
70734;DHT22;58320;48.804;9.252;2023-03-01T15:03:40;13.70;36.00
70734;DHT22;58320;48.804;9.252;2023-03-01T15:06:09;13.50;36.10
70734;DHT22;58320;48.804;9.252;2023-03-01T15:08:42;13.40;36.50
70734;DHT22;58320;48.804;9.252;2023-03-01T15:11:22;13.30;36.50
70734;DHT22;58320;48.804;9.252;2023-03-01T15:13:51;13.20;37.10
70734;DHT22;58320;48.804;9.252;2023-03-01T15:16:32;13.30;36.80
70734;DHT22;58320;48.804;9.252;2023-03-01T15:19:05;13.40;37.10
70734;DHT22;58320;48.804;9.252;2023-03-01T15:21:36;13.20;36.60
70734;DHT22;58320;48.804;9.252;2023-03-01T15:26:53;13.00;37.00
70734;DHT22;58320;48.804;9.252;2023-03-01T15:29:26;13.00;37.00
70734;DHT22;58320;48.804;9.252;2023-03-01T15:31:58;12.90;36.30
70734;DHT22;58320;48.804;9.252;2023-03-01T15:34:38;12.60;37.20
70734;DHT22;58320;48.804;9.252;2023-03-01T15:40:29;12.50;37.80
70734;DHT22;58320;48.804;9.252;2023-03-01T15:43:03;12.80;37.60
70734;DHT22;58320;48.804;9.252;2023-03-01T15:45:31;12.90;36.50
70734;DHT22;58320;48.804;9.252;2023-03-01T15:48:17;12.50;37.40
70734;DHT22;58320;48.804;9.252;2023-03-01T15:50:54;12.50;37.30
70734;DHT22;58320;48.804;9.252;2023-03-01T15:53:21;12.40;37.60
70734;DHT22;58320;48.804;9.252;2023-03-01T15:55:46;12.50;37.00
70734;DHT22;58320;48.804;9.252;2023-03-01T15:58:23;12.10;37.70
70734;DHT22;58320;48.804;9.252;2023-03-01T16:00:51;11.60;38.00
70734;DHT22;58320;48.804;9.252;2023-03-01T16:03:22;11.30;38.60
70734;DHT22;58320;48.804;9.252;2023-03-01T16:05:48;11.20;38.80
70734;DHT22;58320;48.804;9.252;2023-03-01T16:08:16;10.90;39.30
70734;DHT22;58320;48.804;9.252;2023-03-01T16:10:43;10.50;39.90
70734;DHT22;58320;48.804;9.252;2023-03-01T16:13:13;10.20;40.20
70734;DHT22;58320;48.804;9.252;2023-03-01T16:15:39;9.90;41.10
70734;DHT22;58320;48.804;9.252;2023-03-01T16:18:06;9.90;41.00
70734;DHT22;58320;48.804;9.252;2023-03-01T16:20:33;9.70;41.60
70734;DHT22;58320;48.804;9.252;2023-03-01T16:23:05;9.60;41.90
70734;DHT22;58320;48.804;9.252;2023-03-01T16:25:33;9.50;41.70
70734;DHT22;58320;48.804;9.252;2023-03-01T16:28:00;9.30;42.20
70734;DHT22;58320;48.804;9.252;2023-03-01T16:30:30;9.20;42.50
70734;DHT22;58320;48.804;9.252;2023-03-01T16:32:56;9.00;42.80
70734;DHT22;58320;48.804;9.252;2023-03-01T16:35:22;8.90;43.30
70734;DHT22;58320;48.804;9.252;2023-03-01T16:37:49;8.80;43.50
70734;DHT22;58320;48.804;9.252;2023-03-01T16:40:20;8.70;44.00
70734;DHT22;58320;48.804;9.252;2023-03-01T16:42:48;8.50;44.40
70734;DHT22;58320;48.804;9.252;2023-03-01T16:45:15;8.30;45.10
70734;DHT22;58320;48.804;9.252;2023-03-01T16:47:41;8.10;45.40
70734;DHT22;58320;48.804;9.252;2023-03-01T16:50:08;7.90;45.80
70734;DHT22;58320;48.804;9.252;2023-03-01T16:52:34;7.70;45.90
70734;DHT22;58320;48.804;9.252;2023-03-01T16:55:01;7.50;46.70
70734;DHT22;58320;48.804;9.252;2023-03-01T16:57:28;7.30;47.00
70734;DHT22;58320;48.804;9.252;2023-03-01T16:59:54;7.20;47.70
70734;DHT22;58320;48.804;9.252;2023-03-01T17:02:20;7.00;47.70
70734;DHT22;58320;48.804;9.252;2023-03-01T17:04:52;6.90;48.20
70734;DHT22;58320;48.804;9.252;2023-03-01T17:07:21;6.70;48.60
70734;DHT22;58320;48.804;9.252;2023-03-01T17:09:47;6.60;48.90
70734;DHT22;58320;48.804;9.252;2023-03-01T17:12:14;6.50;49.20
70734;DHT22;58320;48.804;9.252;2023-03-01T17:14:40;6.40;49.80
70734;DHT22;58320;48.804;9.252;2023-03-01T17:17:10;6.30;49.90
70734;DHT22;58320;48.804;9.252;2023-03-01T17:19:37;6.10;50.20
70734;DHT22;58320;48.804;9.252;2023-03-01T17:22:11;6.00;51.00
70734;DHT22;58320;48.804;9.252;2023-03-01T17:24:42;5.90;51.00
70734;DHT22;58320;48.804;9.252;2023-03-01T17:27:08;5.80;51.20
70734;DHT22;58320;48.804;9.252;2023-03-01T17:29:36;5.70;51.60
70734;DHT22;58320;48.804;9.252;2023-03-01T17:32:03;5.60;52.00
70734;DHT22;58320;48.804;9.252;2023-03-01T17:34:31;5.50;52.10
70734;DHT22;58320;48.804;9.252;2023-03-01T17:36:58;5.50;52.30
70734;DHT22;58320;48.804;9.252;2023-03-01T17:39:24;5.40;52.80
70734;DHT22;58320;48.804;9.252;2023-03-01T17:42:00;5.30;53.00
70734;DHT22;58320;48.804;9.252;2023-03-01T17:44:27;5.20;53.40
70734;DHT22;58320;48.804;9.252;2023-03-01T17:46:53;5.10;53.80
70734;DHT22;58320;48.804;9.252;2023-03-01T17:49:18;5.00;54.60
70734;DHT22;58320;48.804;9.252;2023-03-01T17:51:44;4.90;54.60
70734;DHT22;58320;48.804;9.252;2023-03-01T17:54:10;4.80;55.10
70734;DHT22;58320;48.804;9.252;2023-03-01T17:56:36;4.70;55.60
70734;DHT22;58320;48.804;9.252;2023-03-01T17:59:03;4.60;56.00
70734;DHT22;58320;48.804;9.252;2023-03-01T18:01:30;4.50;56.10
70734;DHT22;58320;48.804;9.252;2023-03-01T18:03:56;4.40;56.50